Terminal Aerodrome Forecast
Issued by NWS Jacksonville, FL

Home | Current Version | Previous Version | Text Only | Print | Product List | Glossary On
Versions: 1 2 3 4 5 6 7 8 9 10 11 12 13 14 15 16 17 18 19 20 21
621
FTUS42 KJAX 021941 AAA
TAFSSI
TAF AMD
KSSI 021941Z 0220/0318 16012KT P6SM VCTS SCT035CB SCT100 BKN200
     FM030000 17010KT P6SM SCT040 BKN100
     FM031500 24008KT P6SM FEW040 SCT250=

USA.gov is the U.S. government's official web portal to all federal, state and local government web resources and services.